sensor_id;sensor_type;location;lat;lon;timestamp;temperature;humidity
8953;DHT22;4511;50.890;8.054;2022-10-03T00:01:41;9.60;99.90
8953;DHT22;4511;50.890;8.054;2022-10-03T00:04:25;9.60;99.90
8953;DHT22;4511;50.890;8.054;2022-10-03T00:07:05;9.60;99.90
8953;DHT22;4511;50.890;8.054;2022-10-03T00:09:47;9.60;99.90
8953;DHT22;4511;50.890;8.054;2022-10-03T00:12:38;9.70;99.90
8953;DHT22;4511;50.890;8.054;2022-10-03T00:15:12;9.70;99.90
8953;DHT22;4511;50.890;8.054;2022-10-03T00:17:45;9.70;99.90
8953;DHT22;4511;50.890;8.054;2022-10-03T00:20:39;9.70;99.90
8953;DHT22;4511;50.890;8.054;2022-10-03T00:23:12;9.70;99.90
8953;DHT22;4511;50.890;8.054;2022-10-03T00:25:46;9.80;99.90
8953;DHT22;4511;50.890;8.054;2022-10-03T00:28:23;9.80;99.90
8953;DHT22;4511;50.890;8.054;2022-10-03T00:31:01;9.80;99.90
8953;DHT22;4511;50.890;8.054;2022-10-03T00:33:38;9.90;99.90
8953;DHT22;4511;50.890;8.054;2022-10-03T00:36:13;9.80;99.90
8953;DHT22;4511;50.890;8.054;2022-10-03T00:42:21;9.80;99.90
8953;DHT22;4511;50.890;8.054;2022-10-03T00:45:25;9.80;99.90
8953;DHT22;4511;50.890;8.054;2022-10-03T00:48:30;9.80;99.90
8953;DHT22;4511;50.890;8.054;2022-10-03T00:51:18;9.70;99.90
8953;DHT22;4511;50.890;8.054;2022-10-03T00:54:01;9.70;99.90
8953;DHT22;4511;50.890;8.054;2022-10-03T00:56:52;9.60;99.90
8953;DHT22;4511;50.890;8.054;2022-10-03T00:59:33;9.60;99.90
8953;DHT22;4511;50.890;8.054;2022-10-03T01:05:08;9.60;99.90
8953;DHT22;4511;50.890;8.054;2022-10-03T01:08:01;9.60;99.90
8953;DHT22;4511;50.890;8.054;2022-10-03T01:10:36;9.50;99.90
8953;DHT22;4511;50.890;8.054;2022-10-03T01:13:19;9.50;99.90
8953;DHT22;4511;50.890;8.054;2022-10-03T01:15:54;9.50;99.90
8953;DHT22;4511;50.890;8.054;2022-10-03T01:18:31;9.50;99.90
8953;DHT22;4511;50.890;8.054;2022-10-03T01:21:11;9.50;99.90
8953;DHT22;4511;50.890;8.054;2022-10-03T01:26:56;9.40;99.90
8953;DHT22;4511;50.890;8.054;2022-10-03T01:29:35;9.40;99.90
8953;DHT22;4511;50.890;8.054;2022-10-03T01:32:27;9.40;99.90
8953;DHT22;4511;50.890;8.054;2022-10-03T01:35:03;9.50;99.90
8953;DHT22;4511;50.890;8.054;2022-10-03T01:37:41;9.60;99.90
8953;DHT22;4511;50.890;8.054;2022-10-03T01:40:18;9.60;99.90
8953;DHT22;4511;50.890;8.054;2022-10-03T01:43:02;9.70;99.90
8953;DHT22;4511;50.890;8.054;2022-10-03T01:45:41;9.70;99.90
8953;DHT22;4511;50.890;8.054;2022-10-03T01:48:16;9.70;99.90
8953;DHT22;4511;50.890;8.054;2022-10-03T01:50:52;9.70;99.90
8953;DHT22;4511;50.890;8.054;2022-10-03T01:53:32;9.70;99.90
8953;DHT22;4511;50.890;8.054;2022-10-03T01:56:07;9.70;99.90
8953;DHT22;4511;50.890;8.054;2022-10-03T01:58:46;9.70;99.90
8953;DHT22;4511;50.890;8.054;2022-10-03T02:01:21;9.80;99.90
8953;DHT22;4511;50.890;8.054;2022-10-03T02:03:56;9.80;99.90
8953;DHT22;4511;50.890;8.054;2022-10-03T02:06:34;9.80;99.90
8953;DHT22;4511;50.890;8.054;2022-10-03T02:09:09;9.90;99.90
8953;DHT22;4511;50.890;8.054;2022-10-03T02:11:52;9.90;99.90
8953;DHT22;4511;50.890;8.054;2022-10-03T02:14:29;9.80;99.90
8953;DHT22;4511;50.890;8.054;2022-10-03T02:17:04;9.90;99.90
8953;DHT22;4511;50.890;8.054;2022-10-03T02:19:40;9.90;99.90
8953;DHT22;4511;50.890;8.054;2022-10-03T02:22:13;9.90;99.90
8953;DHT22;4511;50.890;8.054;2022-10-03T02:24:47;9.90;99.90
8953;DHT22;4511;50.890;8.054;2022-10-03T02:30:19;9.90;99.90
8953;DHT22;4511;50.890;8.054;2022-10-03T02:36:39;10.00;99.90
8953;DHT22;4511;50.890;8.054;2022-10-03T02:39:42;10.00;99.90
8953;DHT22;4511;50.890;8.054;2022-10-03T02:42:36;9.80;99.90
8953;DHT22;4511;50.890;8.054;2022-10-03T02:45:35;9.70;99.90
8953;DHT22;4511;50.890;8.054;2022-10-03T02:48:48;9.80;99.90
8953;DHT22;4511;50.890;8.054;2022-10-03T02:51:42;9.90;99.90
8953;DHT22;4511;50.890;8.054;2022-10-03T02:54:39;10.00;99.90
8953;DHT22;4511;50.890;8.054;2022-10-03T03:00:20;9.90;99.90
8953;DHT22;4511;50.890;8.054;2022-10-03T03:09:25;10.00;99.90
8953;DHT22;4511;50.890;8.054;2022-10-03T03:12:15;10.00;99.90
8953;DHT22;4511;50.890;8.054;2022-10-03T03:15:29;10.00;99.90
8953;DHT22;4511;50.890;8.054;2022-10-03T03:18:12;10.10;99.90
8953;DHT22;4511;50.890;8.054;2022-10-03T03:20:53;10.00;99.90
8953;DHT22;4511;50.890;8.054;2022-10-03T03:23:49;10.00;99.90
8953;DHT22;4511;50.890;8.054;2022-10-03T03:26:45;10.00;99.90
8953;DHT22;4511;50.890;8.054;2022-10-03T03:29:22;10.10;99.90
8953;DHT22;4511;50.890;8.054;2022-10-03T03:31:57;10.20;99.90
8953;DHT22;4511;50.890;8.054;2022-10-03T03:34:30;10.20;99.90
8953;DHT22;4511;50.890;8.054;2022-10-03T03:37:05;10.20;99.90
8953;DHT22;4511;50.890;8.054;2022-10-03T03:39:46;10.20;99.90
8953;DHT22;4511;50.890;8.054;2022-10-03T03:42:36;10.20;99.90
8953;DHT22;4511;50.890;8.054;2022-10-03T03:45:11;10.10;99.90
8953;DHT22;4511;50.890;8.054;2022-10-03T03:47:54;10.10;99.90
8953;DHT22;4511;50.890;8.054;2022-10-03T03:50:38;10.10;99.90
8953;DHT22;4511;50.890;8.054;2022-10-03T03:53:28;10.00;99.90
8953;DHT22;4511;50.890;8.054;2022-10-03T03:56:07;10.00;99.90
8953;DHT22;4511;50.890;8.054;2022-10-03T03:58:46;9.90;99.90
8953;DHT22;4511;50.890;8.054;2022-10-03T04:01:36;9.90;99.90
8953;DHT22;4511;50.890;8.054;2022-10-03T04:04:20;9.90;99.90
8953;DHT22;4511;50.890;8.054;2022-10-03T04:06:56;10.10;99.90
8953;DHT22;4511;50.890;8.054;2022-10-03T04:09:45;10.10;99.90
8953;DHT22;4511;50.890;8.054;2022-10-03T04:12:25;10.10;99.90
8953;DHT22;4511;50.890;8.054;2022-10-03T04:15:10;10.10;99.90
8953;DHT22;4511;50.890;8.054;2022-10-03T04:17:53;10.00;99.90
8953;DHT22;4511;50.890;8.054;2022-10-03T04:20:56;10.00;99.90
8953;DHT22;4511;50.890;8.054;2022-10-03T04:23:40;10.10;99.90
8953;DHT22;4511;50.890;8.054;2022-10-03T04:26:21;10.10;99.90
8953;DHT22;4511;50.890;8.054;2022-10-03T04:29:17;10.20;99.90
8953;DHT22;4511;50.890;8.054;2022-10-03T04:32:03;10.20;99.90
8953;DHT22;4511;50.890;8.054;2022-10-03T04:34:45;10.20;99.90
8953;DHT22;4511;50.890;8.054;2022-10-03T04:37:27;10.10;99.90
8953;DHT22;4511;50.890;8.054;2022-10-03T04:40:09;10.10;99.90
8953;DHT22;4511;50.890;8.054;2022-10-03T04:42:48;10.00;99.90
8953;DHT22;4511;50.890;8.054;2022-10-03T04:45:28;10.00;99.90
8953;DHT22;4511;50.890;8.054;2022-10-03T04:48:09;10.00;99.90
8953;DHT22;4511;50.890;8.054;2022-10-03T04:50:43;9.90;99.90
8953;DHT22;4511;50.890;8.054;2022-10-03T04:53:22;10.00;99.90
8953;DHT22;4511;50.890;8.054;2022-10-03T04:55:59;10.00;99.90
8953;DHT22;4511;50.890;8.054;2022-10-03T04:58:35;10.00;99.90
8953;DHT22;4511;50.890;8.054;2022-10-03T05:01:12;10.00;99.90
8953;DHT22;4511;50.890;8.054;2022-10-03T05:03:49;10.00;99.90
8953;DHT22;4511;50.890;8.054;2022-10-03T05:06:26;9.90;99.90
8953;DHT22;4511;50.890;8.054;2022-10-03T05:09:01;9.90;99.90
8953;DHT22;4511;50.890;8.054;2022-10-03T05:11:43;9.90;99.90
8953;DHT22;4511;50.890;8.054;2022-10-03T05:14:19;9.90;99.90
8953;DHT22;4511;50.890;8.054;2022-10-03T05:16:54;9.90;99.90
8953;DHT22;4511;50.890;8.054;2022-10-03T05:19:46;9.90;99.90
8953;DHT22;4511;50.890;8.054;2022-10-03T05:22:37;10.00;99.90
8953;DHT22;4511;50.890;8.054;2022-10-03T05:25:17;10.00;99.90
8953;DHT22;4511;50.890;8.054;2022-10-03T05:27:52;10.10;99.90
8953;DHT22;4511;50.890;8.054;2022-10-03T05:30:29;10.10;99.90
8953;DHT22;4511;50.890;8.054;2022-10-03T05:33:04;10.10;99.90
8953;DHT22;4511;50.890;8.054;2022-10-03T05:35:45;10.10;99.90
8953;DHT22;4511;50.890;8.054;2022-10-03T05:38:39;10.10;99.90
8953;DHT22;4511;50.890;8.054;2022-10-03T05:41:17;10.10;99.90
8953;DHT22;4511;50.890;8.054;2022-10-03T05:43:50;10.20;99.90
8953;DHT22;4511;50.890;8.054;2022-10-03T05:46:40;10.20;99.90
8953;DHT22;4511;50.890;8.054;2022-10-03T05:49:32;10.20;99.90
8953;DHT22;4511;50.890;8.054;2022-10-03T05:52:15;10.30;99.90
8953;DHT22;4511;50.890;8.054;2022-10-03T05:55:00;10.30;99.90
8953;DHT22;4511;50.890;8.054;2022-10-03T05:57:56;10.30;99.90
8953;DHT22;4511;50.890;8.054;2022-10-03T06:00:33;10.40;99.90
8953;DHT22;4511;50.890;8.054;2022-10-03T06:03:35;10.40;99.90
8953;DHT22;4511;50.890;8.054;2022-10-03T06:06:13;10.40;99.90
8953;DHT22;4511;50.890;8.054;2022-10-03T06:09:18;10.50;99.90
8953;DHT22;4511;50.890;8.054;2022-10-03T06:11:58;10.50;99.90
8953;DHT22;4511;50.890;8.054;2022-10-03T06:15:01;10.60;99.90
8953;DHT22;4511;50.890;8.054;2022-10-03T06:17:51;10.60;99.90
8953;DHT22;4511;50.890;8.054;2022-10-03T06:23:54;10.50;99.90
8953;DHT22;4511;50.890;8.054;2022-10-03T06:26:49;10.60;99.90
8953;DHT22;4511;50.890;8.054;2022-10-03T06:29:49;10.60;99.90
8953;DHT22;4511;50.890;8.054;2022-10-03T06:36:20;10.70;99.90
8953;DHT22;4511;50.890;8.054;2022-10-03T06:39:30;10.70;99.90
8953;DHT22;4511;50.890;8.054;2022-10-03T06:42:33;10.80;99.90
8953;DHT22;4511;50.890;8.054;2022-10-03T06:45:29;10.80;99.90
8953;DHT22;4511;50.890;8.054;2022-10-03T06:48:12;10.70;99.90
8953;DHT22;4511;50.890;8.054;2022-10-03T06:50:52;10.60;99.90
8953;DHT22;4511;50.890;8.054;2022-10-03T06:53:59;10.50;99.90
8953;DHT22;4511;50.890;8.054;2022-10-03T06:56:44;10.40;99.90
8953;DHT22;4511;50.890;8.054;2022-10-03T06:59:31;10.40;99.90
8953;DHT22;4511;50.890;8.054;2022-10-03T07:08:34;10.70;99.90
8953;DHT22;4511;50.890;8.054;2022-10-03T07:11:16;10.80;99.90
8953;DHT22;4511;50.890;8.054;2022-10-03T07:14:11;10.90;99.90
8953;DHT22;4511;50.890;8.054;2022-10-03T07:17:07;10.90;99.90
8953;DHT22;4511;50.890;8.054;2022-10-03T07:19:58;10.80;99.90
8953;DHT22;4511;50.890;8.054;2022-10-03T07:31:31;11.10;99.90
8953;DHT22;4511;50.890;8.054;2022-10-03T07:37:19;11.30;99.90
8953;DHT22;4511;50.890;8.054;2022-10-03T07:43:26;11.20;99.90
8953;DHT22;4511;50.890;8.054;2022-10-03T07:46:13;11.20;99.90
8953;DHT22;4511;50.890;8.054;2022-10-03T07:49:01;11.20;99.90
8953;DHT22;4511;50.890;8.054;2022-10-03T07:51:39;11.30;99.90
8953;DHT22;4511;50.890;8.054;2022-10-03T07:57:33;11.60;99.90
8953;DHT22;4511;50.890;8.054;2022-10-03T08:00:12;11.80;99.90
8953;DHT22;4511;50.890;8.054;2022-10-03T08:03:19;11.80;99.90
8953;DHT22;4511;50.890;8.054;2022-10-03T08:06:17;11.80;99.90
8953;DHT22;4511;50.890;8.054;2022-10-03T08:11:58;12.00;99.90
8953;DHT22;4511;50.890;8.054;2022-10-03T08:14:35;12.10;99.90
8953;DHT22;4511;50.890;8.054;2022-10-03T08:17:32;12.20;99.90
8953;DHT22;4511;50.890;8.054;2022-10-03T08:20:36;12.20;99.90
8953;DHT22;4511;50.890;8.054;2022-10-03T08:23:24;12.40;99.90
8953;DHT22;4511;50.890;8.054;2022-10-03T08:26:07;12.40;99.90
8953;DHT22;4511;50.890;8.054;2022-10-03T08:28:49;12.50;99.90
8953;DHT22;4511;50.890;8.054;2022-10-03T08:34:37;12.60;99.90
8953;DHT22;4511;50.890;8.054;2022-10-03T08:40:41;12.90;99.90
8953;DHT22;4511;50.890;8.054;2022-10-03T08:44:09;12.90;99.90
8953;DHT22;4511;50.890;8.054;2022-10-03T08:47:04;13.00;99.90
8953;DHT22;4511;50.890;8.054;2022-10-03T08:49:53;12.70;99.90
8953;DHT22;4511;50.890;8.054;2022-10-03T08:52:31;12.60;99.90
8953;DHT22;4511;50.890;8.054;2022-10-03T08:55:30;12.60;99.90
8953;DHT22;4511;50.890;8.054;2022-10-03T08:58:22;12.70;99.90
8953;DHT22;4511;50.890;8.054;2022-10-03T09:01:10;12.70;99.90
8953;DHT22;4511;50.890;8.054;2022-10-03T09:04:06;12.70;99.90
8953;DHT22;4511;50.890;8.054;2022-10-03T09:06:57;12.80;99.90
8953;DHT22;4511;50.890;8.054;2022-10-03T09:09:57;13.10;99.90
8953;DHT22;4511;50.890;8.054;2022-10-03T09:12:52;13.40;99.90
8953;DHT22;4511;50.890;8.054;2022-10-03T09:16:07;13.80;99.90
8953;DHT22;4511;50.890;8.054;2022-10-03T09:18:51;14.10;99.90
8953;DHT22;4511;50.890;8.054;2022-10-03T09:21:52;14.50;99.90
8953;DHT22;4511;50.890;8.054;2022-10-03T09:24:55;14.60;99.90
8953;DHT22;4511;50.890;8.054;2022-10-03T09:27:42;14.40;99.90
8953;DHT22;4511;50.890;8.054;2022-10-03T09:30:21;13.70;99.90
8953;DHT22;4511;50.890;8.054;2022-10-03T09:33:14;13.60;99.90
8953;DHT22;4511;50.890;8.054;2022-10-03T09:39:02;13.50;99.90
8953;DHT22;4511;50.890;8.054;2022-10-03T09:42:01;13.50;99.90
8953;DHT22;4511;50.890;8.054;2022-10-03T09:44:48;13.50;99.90
8953;DHT22;4511;50.890;8.054;2022-10-03T09:51:03;13.50;99.90
8953;DHT22;4511;50.890;8.054;2022-10-03T09:59:43;14.80;99.90
8953;DHT22;4511;50.890;8.054;2022-10-03T10:02:44;14.70;99.90
8953;DHT22;4511;50.890;8.054;2022-10-03T10:05:50;14.60;99.90
8953;DHT22;4511;50.890;8.054;2022-10-03T10:08:38;14.60;99.90
8953;DHT22;4511;50.890;8.054;2022-10-03T10:11:19;14.50;99.90
8953;DHT22;4511;50.890;8.054;2022-10-03T10:17:40;14.50;99.90
8953;DHT22;4511;50.890;8.054;2022-10-03T10:20:35;14.60;99.90
8953;DHT22;4511;50.890;8.054;2022-10-03T10:23:22;14.30;99.90
8953;DHT22;4511;50.890;8.054;2022-10-03T10:29:18;14.60;99.90
8953;DHT22;4511;50.890;8.054;2022-10-03T10:32:09;14.70;99.90
8953;DHT22;4511;50.890;8.054;2022-10-03T10:35:10;15.10;99.90
8953;DHT22;4511;50.890;8.054;2022-10-03T10:38:01;15.40;99.90
8953;DHT22;4511;50.890;8.054;2022-10-03T10:47:11;16.00;99.90
8953;DHT22;4511;50.890;8.054;2022-10-03T10:50:11;15.90;99.90
8953;DHT22;4511;50.890;8.054;2022-10-03T10:56:12;15.80;99.90
8953;DHT22;4511;50.890;8.054;2022-10-03T11:06:00;15.90;99.90
8953;DHT22;4511;50.890;8.054;2022-10-03T11:15:31;16.20;99.90
8953;DHT22;4511;50.890;8.054;2022-10-03T11:18:32;16.30;99.90
8953;DHT22;4511;50.890;8.054;2022-10-03T11:21:29;16.30;99.90
8953;DHT22;4511;50.890;8.054;2022-10-03T11:24:29;16.40;99.90
8953;DHT22;4511;50.890;8.054;2022-10-03T11:30:19;16.40;99.90
8953;DHT22;4511;50.890;8.054;2022-10-03T11:33:24;16.70;99.90
8953;DHT22;4511;50.890;8.054;2022-10-03T11:39:26;16.80;99.90
8953;DHT22;4511;50.890;8.054;2022-10-03T11:42:01;16.80;99.90
8953;DHT22;4511;50.890;8.054;2022-10-03T11:44:33;16.60;99.90
8953;DHT22;4511;50.890;8.054;2022-10-03T11:47:32;16.50;99.90
8953;DHT22;4511;50.890;8.054;2022-10-03T11:50:27;16.50;99.90
8953;DHT22;4511;50.890;8.054;2022-10-03T11:53:14;16.60;99.90
8953;DHT22;4511;50.890;8.054;2022-10-03T11:55:46;16.70;99.90
8953;DHT22;4511;50.890;8.054;2022-10-03T11:58:27;16.20;99.90
8953;DHT22;4511;50.890;8.054;2022-10-03T12:03:48;16.10;99.90
8953;DHT22;4511;50.890;8.054;2022-10-03T12:06:36;16.20;99.90
8953;DHT22;4511;50.890;8.054;2022-10-03T12:09:32;16.20;99.90
8953;DHT22;4511;50.890;8.054;2022-10-03T12:12:10;16.00;99.90
8953;DHT22;4511;50.890;8.054;2022-10-03T12:14:42;16.10;99.90
8953;DHT22;4511;50.890;8.054;2022-10-03T12:17:12;16.10;99.90
8953;DHT22;4511;50.890;8.054;2022-10-03T12:19:54;16.00;99.90
8953;DHT22;4511;50.890;8.054;2022-10-03T12:22:34;15.90;99.90
8953;DHT22;4511;50.890;8.054;2022-10-03T12:25:12;15.70;99.90
8953;DHT22;4511;50.890;8.054;2022-10-03T12:27:49;15.60;99.90
8953;DHT22;4511;50.890;8.054;2022-10-03T12:30:18;15.80;99.90
8953;DHT22;4511;50.890;8.054;2022-10-03T12:32:55;15.90;99.90
8953;DHT22;4511;50.890;8.054;2022-10-03T12:35:37;16.00;99.90
8953;DHT22;4511;50.890;8.054;2022-10-03T12:38:21;16.10;99.90
8953;DHT22;4511;50.890;8.054;2022-10-03T12:40:57;15.80;99.90
8953;DHT22;4511;50.890;8.054;2022-10-03T12:43:37;15.90;99.90
8953;DHT22;4511;50.890;8.054;2022-10-03T12:46:12;16.00;99.90
8953;DHT22;4511;50.890;8.054;2022-10-03T12:48:44;16.10;99.90
8953;DHT22;4511;50.890;8.054;2022-10-03T12:51:21;16.10;99.90
8953;DHT22;4511;50.890;8.054;2022-10-03T12:54:00;15.90;99.90
8953;DHT22;4511;50.890;8.054;2022-10-03T12:56:35;15.90;99.90
8953;DHT22;4511;50.890;8.054;2022-10-03T12:59:24;15.90;99.90
8953;DHT22;4511;50.890;8.054;2022-10-03T13:02:17;15.70;99.90
8953;DHT22;4511;50.890;8.054;2022-10-03T13:04:57;15.90;99.90
8953;DHT22;4511;50.890;8.054;2022-10-03T13:07:32;16.10;99.90
8953;DHT22;4511;50.890;8.054;2022-10-03T13:10:14;16.20;99.90
8953;DHT22;4511;50.890;8.054;2022-10-03T13:12:47;16.50;99.90
8953;DHT22;4511;50.890;8.054;2022-10-03T13:15:41;16.60;99.90
8953;DHT22;4511;50.890;8.054;2022-10-03T13:18:36;16.80;99.90
8953;DHT22;4511;50.890;8.054;2022-10-03T13:21:13;17.10;99.90
8953;DHT22;4511;50.890;8.054;2022-10-03T13:23:44;17.60;99.90
8953;DHT22;4511;50.890;8.054;2022-10-03T13:26:17;18.00;99.90
8953;DHT22;4511;50.890;8.054;2022-10-03T13:28:56;18.60;99.90
8953;DHT22;4511;50.890;8.054;2022-10-03T13:31:30;18.80;99.90
8953;DHT22;4511;50.890;8.054;2022-10-03T13:34:00;19.10;99.90
8953;DHT22;4511;50.890;8.054;2022-10-03T13:36:32;18.20;99.90
8953;DHT22;4511;50.890;8.054;2022-10-03T13:39:11;18.00;99.90
8953;DHT22;4511;50.890;8.054;2022-10-03T13:41:53;17.90;99.90
8953;DHT22;4511;50.890;8.054;2022-10-03T13:44:34;17.60;99.90
8953;DHT22;4511;50.890;8.054;2022-10-03T13:47:22;17.20;99.90
8953;DHT22;4511;50.890;8.054;2022-10-03T13:49:52;17.10;99.90
8953;DHT22;4511;50.890;8.054;2022-10-03T13:52:26;17.10;99.90
8953;DHT22;4511;50.890;8.054;2022-10-03T13:57:50;17.20;99.90
8953;DHT22;4511;50.890;8.054;2022-10-03T14:00:20;17.30;99.90
8953;DHT22;4511;50.890;8.054;2022-10-03T14:03:07;17.30;99.90
8953;DHT22;4511;50.890;8.054;2022-10-03T14:08:59;18.50;99.90
8953;DHT22;4511;50.890;8.054;2022-10-03T14:11:33;19.20;99.90
8953;DHT22;4511;50.890;8.054;2022-10-03T14:14:22;19.40;99.90
8953;DHT22;4511;50.890;8.054;2022-10-03T14:16:58;19.30;99.90
8953;DHT22;4511;50.890;8.054;2022-10-03T14:19:36;18.50;99.90
8953;DHT22;4511;50.890;8.054;2022-10-03T14:22:14;18.50;99.90
8953;DHT22;4511;50.890;8.054;2022-10-03T14:25:02;18.50;99.90
8953;DHT22;4511;50.890;8.054;2022-10-03T14:27:41;18.20;99.90
8953;DHT22;4511;50.890;8.054;2022-10-03T14:30:11;17.70;99.90
8953;DHT22;4511;50.890;8.054;2022-10-03T14:32:47;17.40;99.90
8953;DHT22;4511;50.890;8.054;2022-10-03T14:35:26;17.30;99.90
8953;DHT22;4511;50.890;8.054;2022-10-03T14:38:03;17.00;99.90
8953;DHT22;4511;50.890;8.054;2022-10-03T14:40:39;16.90;99.90
8953;DHT22;4511;50.890;8.054;2022-10-03T14:43:22;17.30;99.90
8953;DHT22;4511;50.890;8.054;2022-10-03T14:45:55;17.50;99.90
8953;DHT22;4511;50.890;8.054;2022-10-03T14:48:27;17.20;99.90
8953;DHT22;4511;50.890;8.054;2022-10-03T14:51:04;17.10;99.90
8953;DHT22;4511;50.890;8.054;2022-10-03T14:53:34;16.90;99.90
8953;DHT22;4511;50.890;8.054;2022-10-03T14:56:06;16.80;99.90
8953;DHT22;4511;50.890;8.054;2022-10-03T14:58:36;16.70;99.90
8953;DHT22;4511;50.890;8.054;2022-10-03T15:01:12;16.90;99.90
8953;DHT22;4511;50.890;8.054;2022-10-03T15:03:43;17.10;99.90
8953;DHT22;4511;50.890;8.054;2022-10-03T15:06:30;17.10;99.90
8953;DHT22;4511;50.890;8.054;2022-10-03T15:09:00;17.10;99.90
8953;DHT22;4511;50.890;8.054;2022-10-03T15:11:31;17.30;99.90
8953;DHT22;4511;50.890;8.054;2022-10-03T15:14:01;17.30;99.90
8953;DHT22;4511;50.890;8.054;2022-10-03T15:16:31;18.60;99.90
8953;DHT22;4511;50.890;8.054;2022-10-03T15:19:02;19.50;99.90
8953;DHT22;4511;50.890;8.054;2022-10-03T15:21:32;19.50;99.90
8953;DHT22;4511;50.890;8.054;2022-10-03T15:24:02;20.20;99.90
8953;DHT22;4511;50.890;8.054;2022-10-03T15:26:33;20.30;99.90
8953;DHT22;4511;50.890;8.054;2022-10-03T15:29:02;19.80;99.90
8953;DHT22;4511;50.890;8.054;2022-10-03T15:31:33;19.70;99.90
8953;DHT22;4511;50.890;8.054;2022-10-03T15:34:02;20.00;99.90
8953;DHT22;4511;50.890;8.054;2022-10-03T15:36:34;19.70;99.90
8953;DHT22;4511;50.890;8.054;2022-10-03T15:39:04;19.30;99.90
8953;DHT22;4511;50.890;8.054;2022-10-03T15:41:34;18.40;99.90
8953;DHT22;4511;50.890;8.054;2022-10-03T15:44:04;18.10;99.90
8953;DHT22;4511;50.890;8.054;2022-10-03T15:46:41;18.10;99.90
8953;DHT22;4511;50.890;8.054;2022-10-03T15:49:27;18.10;99.90
8953;DHT22;4511;50.890;8.054;2022-10-03T15:52:04;18.10;99.90
8953;DHT22;4511;50.890;8.054;2022-10-03T15:54:33;17.90;99.90
8953;DHT22;4511;50.890;8.054;2022-10-03T15:57:05;17.80;99.90
8953;DHT22;4511;50.890;8.054;2022-10-03T15:59:33;18.00;99.90
8953;DHT22;4511;50.890;8.054;2022-10-03T16:02:07;18.10;99.90
8953;DHT22;4511;50.890;8.054;2022-10-03T16:04:35;18.10;99.90
8953;DHT22;4511;50.890;8.054;2022-10-03T16:07:09;17.90;99.90
8953;DHT22;4511;50.890;8.054;2022-10-03T16:09:44;17.70;99.90
8953;DHT22;4511;50.890;8.054;2022-10-03T16:12:36;17.40;99.90
8953;DHT22;4511;50.890;8.054;2022-10-03T16:15:17;17.20;99.90
8953;DHT22;4511;50.890;8.054;2022-10-03T16:17:47;16.90;99.90
8953;DHT22;4511;50.890;8.054;2022-10-03T16:20:20;16.70;99.90
8953;DHT22;4511;50.890;8.054;2022-10-03T16:22:50;16.60;99.90
8953;DHT22;4511;50.890;8.054;2022-10-03T16:25:18;16.50;99.90
8953;DHT22;4511;50.890;8.054;2022-10-03T16:27:52;16.40;99.90
8953;DHT22;4511;50.890;8.054;2022-10-03T16:30:21;16.20;99.90
8953;DHT22;4511;50.890;8.054;2022-10-03T16:32:54;16.20;99.90
8953;DHT22;4511;50.890;8.054;2022-10-03T16:35:33;15.80;99.90
8953;DHT22;4511;50.890;8.054;2022-10-03T16:38:06;15.80;99.90
8953;DHT22;4511;50.890;8.054;2022-10-03T16:40:34;15.80;99.90
8953;DHT22;4511;50.890;8.054;2022-10-03T16:43:03;15.80;99.90
8953;DHT22;4511;50.890;8.054;2022-10-03T16:45:38;15.70;99.90
8953;DHT22;4511;50.890;8.054;2022-10-03T16:48:11;15.60;99.90
8953;DHT22;4511;50.890;8.054;2022-10-03T16:50:56;15.50;99.90
8953;DHT22;4511;50.890;8.054;2022-10-03T16:53:26;15.40;99.90
8953;DHT22;4511;50.890;8.054;2022-10-03T16:55:56;15.30;99.90
8953;DHT22;4511;50.890;8.054;2022-10-03T16:58:26;15.20;99.90
8953;DHT22;4511;50.890;8.054;2022-10-03T17:00:59;15.20;99.90
8953;DHT22;4511;50.890;8.054;2022-10-03T17:03:30;15.10;99.90
8953;DHT22;4511;50.890;8.054;2022-10-03T17:06:00;14.90;99.90
8953;DHT22;4511;50.890;8.054;2022-10-03T17:08:33;14.70;99.90
8953;DHT22;4511;50.890;8.054;2022-10-03T17:11:03;14.60;99.90
8953;DHT22;4511;50.890;8.054;2022-10-03T17:13:40;14.50;99.90
8953;DHT22;4511;50.890;8.054;2022-10-03T17:16:11;14.40;99.90
8953;DHT22;4511;50.890;8.054;2022-10-03T17:18:40;14.40;99.90
8953;DHT22;4511;50.890;8.054;2022-10-03T17:21:18;14.30;99.90
8953;DHT22;4511;50.890;8.054;2022-10-03T17:23:55;14.20;99.90
8953;DHT22;4511;50.890;8.054;2022-10-03T17:26:27;14.10;99.90
8953;DHT22;4511;50.890;8.054;2022-10-03T17:29:02;14.10;99.90
8953;DHT22;4511;50.890;8.054;2022-10-03T17:31:40;14.10;99.90
8953;DHT22;4511;50.890;8.054;2022-10-03T17:34:13;14.10;99.90
8953;DHT22;4511;50.890;8.054;2022-10-03T17:36:53;14.00;99.90
8953;DHT22;4511;50.890;8.054;2022-10-03T17:39:34;14.00;99.90
8953;DHT22;4511;50.890;8.054;2022-10-03T17:42:09;14.00;99.90
8953;DHT22;4511;50.890;8.054;2022-10-03T17:44:51;13.80;99.90
8953;DHT22;4511;50.890;8.054;2022-10-03T17:47:22;13.60;99.90
8953;DHT22;4511;50.890;8.054;2022-10-03T17:49:57;13.40;99.90
8953;DHT22;4511;50.890;8.054;2022-10-03T17:52:26;13.40;99.90
8953;DHT22;4511;50.890;8.054;2022-10-03T17:54:56;13.40;99.90
8953;DHT22;4511;50.890;8.054;2022-10-03T17:57:26;13.30;99.90
8953;DHT22;4511;50.890;8.054;2022-10-03T17:59:56;13.20;99.90
8953;DHT22;4511;50.890;8.054;2022-10-03T18:02:31;13.20;99.90
8953;DHT22;4511;50.890;8.054;2022-10-03T18:05:06;13.00;99.90
8953;DHT22;4511;50.890;8.054;2022-10-03T18:07:37;13.00;99.90
8953;DHT22;4511;50.890;8.054;2022-10-03T18:10:17;12.90;99.90
8953;DHT22;4511;50.890;8.054;2022-10-03T18:12:46;12.80;99.90
8953;DHT22;4511;50.890;8.054;2022-10-03T18:18:58;12.70;99.90
8953;DHT22;4511;50.890;8.054;2022-10-03T18:21:39;12.60;99.90
8953;DHT22;4511;50.890;8.054;2022-10-03T18:24:20;12.60;99.90
8953;DHT22;4511;50.890;8.054;2022-10-03T18:26:56;12.50;99.90
8953;DHT22;4511;50.890;8.054;2022-10-03T18:29:32;12.50;99.90
8953;DHT22;4511;50.890;8.054;2022-10-03T18:32:10;12.20;99.90
8953;DHT22;4511;50.890;8.054;2022-10-03T18:34:42;12.20;99.90
8953;DHT22;4511;50.890;8.054;2022-10-03T18:39:59;12.20;99.90
8953;DHT22;4511;50.890;8.054;2022-10-03T18:42:29;12.30;99.90
8953;DHT22;4511;50.890;8.054;2022-10-03T18:44:58;12.20;99.90
8953;DHT22;4511;50.890;8.054;2022-10-03T18:47:29;12.10;99.90
8953;DHT22;4511;50.890;8.054;2022-10-03T18:50:04;12.10;99.90
8953;DHT22;4511;50.890;8.054;2022-10-03T18:52:37;12.00;99.90
8953;DHT22;4511;50.890;8.054;2022-10-03T18:55:15;12.00;99.90
8953;DHT22;4511;50.890;8.054;2022-10-03T18:57:48;12.00;99.90
8953;DHT22;4511;50.890;8.054;2022-10-03T19:00:18;11.90;99.90
8953;DHT22;4511;50.890;8.054;2022-10-03T19:02:49;11.90;99.90
8953;DHT22;4511;50.890;8.054;2022-10-03T19:05:20;11.70;99.90
8953;DHT22;4511;50.890;8.054;2022-10-03T19:07:51;11.70;99.90
8953;DHT22;4511;50.890;8.054;2022-10-03T19:10:31;11.70;99.90
8953;DHT22;4511;50.890;8.054;2022-10-03T19:13:12;11.60;99.90
8953;DHT22;4511;50.890;8.054;2022-10-03T19:15:54;11.60;99.90
8953;DHT22;4511;50.890;8.054;2022-10-03T19:18:26;11.50;99.90
8953;DHT22;4511;50.890;8.054;2022-10-03T19:20:56;11.50;99.90
8953;DHT22;4511;50.890;8.054;2022-10-03T19:23:28;11.50;99.90
8953;DHT22;4511;50.890;8.054;2022-10-03T19:26:01;11.50;99.90
8953;DHT22;4511;50.890;8.054;2022-10-03T19:28:31;11.50;99.90
8953;DHT22;4511;50.890;8.054;2022-10-03T19:31:03;11.50;99.90
8953;DHT22;4511;50.890;8.054;2022-10-03T19:33:33;11.50;99.90
8953;DHT22;4511;50.890;8.054;2022-10-03T19:36:04;11.40;99.90
8953;DHT22;4511;50.890;8.054;2022-10-03T19:38:35;11.30;99.90
8953;DHT22;4511;50.890;8.054;2022-10-03T19:41:06;11.20;99.90
8953;DHT22;4511;50.890;8.054;2022-10-03T19:43:38;11.20;99.90
8953;DHT22;4511;50.890;8.054;2022-10-03T19:46:15;11.00;99.90